sensor_id;sensor_type;location;lat;lon;timestamp;P1;durP1;ratioP1;P2;durP2;ratioP2
26594;SDS011;14238;49.496;8.154;2024-03-02T00:02:12;3.13;;;2.90;;
26594;SDS011;14238;49.496;8.154;2024-03-02T00:04:39;2.50;;;2.30;;
26594;SDS011;14238;49.496;8.154;2024-03-02T00:07:05;2.13;;;2.03;;
26594;SDS011;14238;49.496;8.154;2024-03-02T00:09:32;2.03;;;1.93;;
26594;SDS011;14238;49.496;8.154;2024-03-02T00:11:59;1.97;;;1.73;;
26594;SDS011;14238;49.496;8.154;2024-03-02T00:14:25;2.47;;;1.80;;
26594;SDS011;14238;49.496;8.154;2024-03-02T00:16:54;1.70;;;1.63;;
26594;SDS011;14238;49.496;8.154;2024-03-02T00:19:21;1.90;;;1.80;;
26594;SDS011;14238;49.496;8.154;2024-03-02T00:21:48;1.50;;;1.50;;
26594;SDS011;14238;49.496;8.154;2024-03-02T00:24:34;1.40;;;1.40;;
26594;SDS011;14238;49.496;8.154;2024-03-02T00:27:01;1.60;;;1.50;;
26594;SDS011;14238;49.496;8.154;2024-03-02T00:29:29;1.73;;;1.63;;
26594;SDS011;14238;49.496;8.154;2024-03-02T00:31:55;1.90;;;1.63;;
26594;SDS011;14238;49.496;8.154;2024-03-02T00:34:21;2.10;;;2.00;;
26594;SDS011;14238;49.496;8.154;2024-03-02T00:36:47;1.40;;;1.30;;
26594;SDS011;14238;49.496;8.154;2024-03-02T00:39:14;1.67;;;1.57;;
26594;SDS011;14238;49.496;8.154;2024-03-02T00:41:41;1.10;;;1.10;;
26594;SDS011;14238;49.496;8.154;2024-03-02T00:44:13;1.47;;;1.37;;
26594;SDS011;14238;49.496;8.154;2024-03-02T00:46:41;1.57;;;1.47;;
26594;SDS011;14238;49.496;8.154;2024-03-02T00:49:21;1.70;;;1.60;;
26594;SDS011;14238;49.496;8.154;2024-03-02T00:51:48;2.63;;;2.43;;
26594;SDS011;14238;49.496;8.154;2024-03-02T00:54:19;2.30;;;1.43;;
26594;SDS011;14238;49.496;8.154;2024-03-02T00:56:45;1.30;;;1.30;;
26594;SDS011;14238;49.496;8.154;2024-03-02T00:59:12;1.87;;;1.47;;
26594;SDS011;14238;49.496;8.154;2024-03-02T01:01:38;1.30;;;1.20;;
26594;SDS011;14238;49.496;8.154;2024-03-02T01:04:05;1.53;;;1.43;;
26594;SDS011;14238;49.496;8.154;2024-03-02T01:06:31;1.80;;;1.70;;
26594;SDS011;14238;49.496;8.154;2024-03-02T01:08:57;1.57;;;1.50;;
26594;SDS011;14238;49.496;8.154;2024-03-02T01:11:23;2.07;;;1.73;;
26594;SDS011;14238;49.496;8.154;2024-03-02T01:13:49;1.80;;;1.70;;
26594;SDS011;14238;49.496;8.154;2024-03-02T01:16:15;2.60;;;2.40;;
26594;SDS011;14238;49.496;8.154;2024-03-02T01:18:41;1.90;;;1.80;;
26594;SDS011;14238;49.496;8.154;2024-03-02T01:21:07;3.50;;;2.80;;
26594;SDS011;14238;49.496;8.154;2024-03-02T01:23:33;2.50;;;2.03;;
26594;SDS011;14238;49.496;8.154;2024-03-02T01:25:59;1.97;;;1.87;;
26594;SDS011;14238;49.496;8.154;2024-03-02T01:28:25;2.70;;;2.50;;
26594;SDS011;14238;49.496;8.154;2024-03-02T01:30:51;3.40;;;2.70;;
26594;SDS011;14238;49.496;8.154;2024-03-02T01:33:17;2.90;;;2.67;;
26594;SDS011;14238;49.496;8.154;2024-03-02T01:35:43;3.83;;;2.90;;
26594;SDS011;14238;49.496;8.154;2024-03-02T01:38:09;2.67;;;2.00;;
26594;SDS011;14238;49.496;8.154;2024-03-02T01:40:35;1.30;;;1.30;;
26594;SDS011;14238;49.496;8.154;2024-03-02T01:43:02;1.77;;;1.67;;
26594;SDS011;14238;49.496;8.154;2024-03-02T01:45:28;1.90;;;1.50;;
26594;SDS011;14238;49.496;8.154;2024-03-02T01:47:54;3.70;;;2.10;;
26594;SDS011;14238;49.496;8.154;2024-03-02T01:50:29;1.27;;;1.03;;
26594;SDS011;14238;49.496;8.154;2024-03-02T01:52:56;1.23;;;1.23;;
26594;SDS011;14238;49.496;8.154;2024-03-02T01:55:22;2.57;;;1.40;;
26594;SDS011;14238;49.496;8.154;2024-03-02T01:57:49;1.00;;;1.00;;
26594;SDS011;14238;49.496;8.154;2024-03-02T02:00:22;2.27;;;1.37;;
26594;SDS011;14238;49.496;8.154;2024-03-02T02:02:50;12.20;;;8.57;;
26594;SDS011;14238;49.496;8.154;2024-03-02T02:05:16;5.23;;;3.83;;
26594;SDS011;14238;49.496;8.154;2024-03-02T02:07:42;7.10;;;4.43;;
26594;SDS011;14238;49.496;8.154;2024-03-02T02:10:08;2.63;;;2.43;;
26594;SDS011;14238;49.496;8.154;2024-03-02T02:12:35;2.93;;;2.47;;
26594;SDS011;14238;49.496;8.154;2024-03-02T02:15:01;1.83;;;1.40;;
26594;SDS011;14238;49.496;8.154;2024-03-02T02:17:27;2.20;;;2.00;;
26594;SDS011;14238;49.496;8.154;2024-03-02T02:19:53;2.20;;;2.10;;
26594;SDS011;14238;49.496;8.154;2024-03-02T02:22:19;1.50;;;1.40;;
26594;SDS011;14238;49.496;8.154;2024-03-02T02:24:45;1.53;;;1.43;;
26594;SDS011;14238;49.496;8.154;2024-03-02T02:27:11;2.10;;;1.43;;
26594;SDS011;14238;49.496;8.154;2024-03-02T02:29:40;1.30;;;1.30;;
26594;SDS011;14238;49.496;8.154;2024-03-02T02:32:06;2.47;;;2.27;;
26594;SDS011;14238;49.496;8.154;2024-03-02T02:34:32;2.97;;;2.50;;
26594;SDS011;14238;49.496;8.154;2024-03-02T02:36:58;2.07;;;1.97;;
26594;SDS011;14238;49.496;8.154;2024-03-02T02:39:24;2.00;;;1.90;;
26594;SDS011;14238;49.496;8.154;2024-03-02T02:41:50;1.80;;;1.70;;
26594;SDS011;14238;49.496;8.154;2024-03-02T02:44:16;1.77;;;1.67;;
26594;SDS011;14238;49.496;8.154;2024-03-02T02:46:42;2.17;;;1.60;;
26594;SDS011;14238;49.496;8.154;2024-03-02T02:49:08;2.10;;;2.00;;
26594;SDS011;14238;49.496;8.154;2024-03-02T02:51:34;2.20;;;1.73;;
26594;SDS011;14238;49.496;8.154;2024-03-02T02:54:00;1.30;;;1.20;;
26594;SDS011;14238;49.496;8.154;2024-03-02T02:56:26;3.20;;;2.70;;
26594;SDS011;14238;49.496;8.154;2024-03-02T02:58:52;2.57;;;2.37;;
26594;SDS011;14238;49.496;8.154;2024-03-02T03:01:18;3.20;;;2.27;;
26594;SDS011;14238;49.496;8.154;2024-03-02T03:03:44;2.20;;;2.00;;
26594;SDS011;14238;49.496;8.154;2024-03-02T03:06:10;2.47;;;2.27;;
26594;SDS011;14238;49.496;8.154;2024-03-02T03:08:36;1.90;;;1.80;;
26594;SDS011;14238;49.496;8.154;2024-03-02T03:11:03;1.83;;;1.73;;
26594;SDS011;14238;49.496;8.154;2024-03-02T03:13:29;1.73;;;1.63;;
26594;SDS011;14238;49.496;8.154;2024-03-02T03:15:55;1.70;;;1.60;;
26594;SDS011;14238;49.496;8.154;2024-03-02T03:18:21;2.07;;;1.97;;
26594;SDS011;14238;49.496;8.154;2024-03-02T03:20:47;2.60;;;1.73;;
26594;SDS011;14238;49.496;8.154;2024-03-02T03:23:13;2.00;;;1.60;;
26594;SDS011;14238;49.496;8.154;2024-03-02T03:25:41;1.67;;;1.53;;
26594;SDS011;14238;49.496;8.154;2024-03-02T03:28:07;1.80;;;1.70;;
26594;SDS011;14238;49.496;8.154;2024-03-02T03:30:35;2.40;;;1.60;;
26594;SDS011;14238;49.496;8.154;2024-03-02T03:33:01;1.60;;;1.50;;
26594;SDS011;14238;49.496;8.154;2024-03-02T03:35:27;1.63;;;1.50;;
26594;SDS011;14238;49.496;8.154;2024-03-02T03:37:53;1.70;;;1.60;;
26594;SDS011;14238;49.496;8.154;2024-03-02T03:40:19;1.80;;;1.67;;
26594;SDS011;14238;49.496;8.154;2024-03-02T03:42:45;1.43;;;1.33;;
26594;SDS011;14238;49.496;8.154;2024-03-02T03:45:11;2.00;;;1.90;;
26594;SDS011;14238;49.496;8.154;2024-03-02T03:47:37;1.70;;;1.60;;
26594;SDS011;14238;49.496;8.154;2024-03-02T03:50:03;1.80;;;1.70;;
26594;SDS011;14238;49.496;8.154;2024-03-02T03:52:31;2.00;;;1.90;;
26594;SDS011;14238;49.496;8.154;2024-03-02T03:54:58;1.90;;;1.80;;
26594;SDS011;14238;49.496;8.154;2024-03-02T03:57:24;2.03;;;1.93;;
26594;SDS011;14238;49.496;8.154;2024-03-02T03:59:50;2.10;;;2.00;;
26594;SDS011;14238;49.496;8.154;2024-03-02T04:02:16;2.63;;;2.43;;
26594;SDS011;14238;49.496;8.154;2024-03-02T04:04:42;3.27;;;3.07;;
26594;SDS011;14238;49.496;8.154;2024-03-02T04:07:08;3.20;;;3.00;;
26594;SDS011;14238;49.496;8.154;2024-03-02T04:09:34;3.23;;;3.03;;
26594;SDS011;14238;49.496;8.154;2024-03-02T04:12:00;4.47;;;3.93;;
26594;SDS011;14238;49.496;8.154;2024-03-02T04:14:26;4.87;;;4.47;;
26594;SDS011;14238;49.496;8.154;2024-03-02T04:16:52;5.10;;;4.70;;
26594;SDS011;14238;49.496;8.154;2024-03-02T04:19:18;5.90;;;5.43;;
26594;SDS011;14238;49.496;8.154;2024-03-02T04:21:44;7.00;;;6.30;;
26594;SDS011;14238;49.496;8.154;2024-03-02T04:24:10;7.77;;;7.07;;
26594;SDS011;14238;49.496;8.154;2024-03-02T04:26:36;7.90;;;7.20;;
26594;SDS011;14238;49.496;8.154;2024-03-02T04:29:02;7.97;;;7.17;;
26594;SDS011;14238;49.496;8.154;2024-03-02T04:31:28;8.60;;;7.80;;
26594;SDS011;14238;49.496;8.154;2024-03-02T04:33:53;8.43;;;7.63;;
26594;SDS011;14238;49.496;8.154;2024-03-02T04:36:19;8.33;;;6.87;;
26594;SDS011;14238;49.496;8.154;2024-03-02T04:38:46;7.50;;;6.50;;
26594;SDS011;14238;49.496;8.154;2024-03-02T04:41:12;5.90;;;5.13;;
26594;SDS011;14238;49.496;8.154;2024-03-02T04:43:38;5.23;;;4.03;;
26594;SDS011;14238;49.496;8.154;2024-03-02T04:46:04;4.40;;;4.10;;
26594;SDS011;14238;49.496;8.154;2024-03-02T04:48:31;3.73;;;3.50;;
26594;SDS011;14238;49.496;8.154;2024-03-02T04:50:57;3.90;;;3.60;;
26594;SDS011;14238;49.496;8.154;2024-03-02T04:53:23;5.13;;;4.40;;
26594;SDS011;14238;49.496;8.154;2024-03-02T04:55:50;3.90;;;3.60;;
26594;SDS011;14238;49.496;8.154;2024-03-02T04:58:18;4.80;;;4.40;;
26594;SDS011;14238;49.496;8.154;2024-03-02T05:00:44;4.87;;;4.47;;
26594;SDS011;14238;49.496;8.154;2024-03-02T05:03:11;5.53;;;5.03;;
26594;SDS011;14238;49.496;8.154;2024-03-02T05:05:38;6.77;;;6.17;;
26594;SDS011;14238;49.496;8.154;2024-03-02T05:08:04;6.20;;;5.70;;
26594;SDS011;14238;49.496;8.154;2024-03-02T05:10:30;6.80;;;5.50;;
26594;SDS011;14238;49.496;8.154;2024-03-02T05:12:56;5.73;;;5.23;;
26594;SDS011;14238;49.496;8.154;2024-03-02T05:15:23;5.77;;;5.30;;
26594;SDS011;14238;49.496;8.154;2024-03-02T05:17:49;4.60;;;4.20;;
26594;SDS011;14238;49.496;8.154;2024-03-02T05:20:16;5.40;;;4.83;;
26594;SDS011;14238;49.496;8.154;2024-03-02T05:22:42;5.87;;;5.37;;
26594;SDS011;14238;49.496;8.154;2024-03-02T05:25:08;4.97;;;4.57;;
26594;SDS011;14238;49.496;8.154;2024-03-02T05:27:35;4.33;;;3.93;;
26594;SDS011;14238;49.496;8.154;2024-03-02T05:30:01;5.23;;;4.67;;
26594;SDS011;14238;49.496;8.154;2024-03-02T05:32:28;4.40;;;4.10;;
26594;SDS011;14238;49.496;8.154;2024-03-02T05:34:54;5.13;;;4.10;;
26594;SDS011;14238;49.496;8.154;2024-03-02T05:37:20;5.00;;;4.60;;
26594;SDS011;14238;49.496;8.154;2024-03-02T05:39:46;6.00;;;5.50;;
26594;SDS011;14238;49.496;8.154;2024-03-02T05:42:12;5.83;;;5.33;;
26594;SDS011;14238;49.496;8.154;2024-03-02T05:44:38;5.23;;;4.73;;
26594;SDS011;14238;49.496;8.154;2024-03-02T05:47:04;5.23;;;4.80;;
26594;SDS011;14238;49.496;8.154;2024-03-02T05:49:30;5.20;;;3.90;;
26594;SDS011;14238;49.496;8.154;2024-03-02T05:51:56;5.10;;;4.60;;
26594;SDS011;14238;49.496;8.154;2024-03-02T05:54:22;4.90;;;4.40;;
26594;SDS011;14238;49.496;8.154;2024-03-02T05:56:48;4.93;;;4.53;;
26594;SDS011;14238;49.496;8.154;2024-03-02T05:59:14;5.10;;;4.70;;
26594;SDS011;14238;49.496;8.154;2024-03-02T06:01:45;5.30;;;4.90;;
26594;SDS011;14238;49.496;8.154;2024-03-02T06:04:17;5.13;;;4.67;;
26594;SDS011;14238;49.496;8.154;2024-03-02T06:06:43;5.40;;;5.00;;
26594;SDS011;14238;49.496;8.154;2024-03-02T06:09:09;4.40;;;4.10;;
26594;SDS011;14238;49.496;8.154;2024-03-02T06:11:40;6.43;;;5.83;;
26594;SDS011;14238;49.496;8.154;2024-03-02T06:14:07;6.00;;;5.50;;
26594;SDS011;14238;49.496;8.154;2024-03-02T06:16:33;4.70;;;4.30;;
26594;SDS011;14238;49.496;8.154;2024-03-02T06:18:59;5.20;;;4.70;;
26594;SDS011;14238;49.496;8.154;2024-03-02T06:21:26;6.20;;;5.10;;
26594;SDS011;14238;49.496;8.154;2024-03-02T06:23:52;4.40;;;4.10;;
26594;SDS011;14238;49.496;8.154;2024-03-02T06:26:18;4.67;;;4.30;;
26594;SDS011;14238;49.496;8.154;2024-03-02T06:28:44;4.30;;;4.00;;
26594;SDS011;14238;49.496;8.154;2024-03-02T06:31:10;4.63;;;4.30;;
26594;SDS011;14238;49.496;8.154;2024-03-02T06:33:36;4.10;;;3.80;;
26594;SDS011;14238;49.496;8.154;2024-03-02T06:36:03;4.77;;;4.30;;
26594;SDS011;14238;49.496;8.154;2024-03-02T06:38:29;4.87;;;4.47;;
26594;SDS011;14238;49.496;8.154;2024-03-02T06:40:57;5.20;;;4.80;;
26594;SDS011;14238;49.496;8.154;2024-03-02T06:43:23;4.70;;;4.30;;
26594;SDS011;14238;49.496;8.154;2024-03-02T06:45:50;4.57;;;4.17;;
26594;SDS011;14238;49.496;8.154;2024-03-02T06:48:16;5.17;;;4.67;;
26594;SDS011;14238;49.496;8.154;2024-03-02T06:50:45;5.70;;;5.20;;
26594;SDS011;14238;49.496;8.154;2024-03-02T06:53:12;5.30;;;4.80;;
26594;SDS011;14238;49.496;8.154;2024-03-02T06:55:38;5.60;;;5.07;;
26594;SDS011;14238;49.496;8.154;2024-03-02T06:58:04;6.40;;;5.20;;
26594;SDS011;14238;49.496;8.154;2024-03-02T07:00:30;6.30;;;5.70;;
26594;SDS011;14238;49.496;8.154;2024-03-02T07:02:55;9.80;;;8.90;;
26594;SDS011;14238;49.496;8.154;2024-03-02T07:05:21;9.83;;;8.63;;
26594;SDS011;14238;49.496;8.154;2024-03-02T07:07:47;8.90;;;8.00;;
26594;SDS011;14238;49.496;8.154;2024-03-02T07:10:13;12.90;;;11.60;;
26594;SDS011;14238;49.496;8.154;2024-03-02T07:12:39;12.37;;;11.07;;
26594;SDS011;14238;49.496;8.154;2024-03-02T07:15:05;11.73;;;10.43;;
26594;SDS011;14238;49.496;8.154;2024-03-02T07:17:32;13.20;;;11.17;;
26594;SDS011;14238;49.496;8.154;2024-03-02T07:19:58;12.23;;;10.60;;
26594;SDS011;14238;49.496;8.154;2024-03-02T07:22:24;13.50;;;11.73;;
26594;SDS011;14238;49.496;8.154;2024-03-02T07:24:50;12.23;;;10.83;;
26594;SDS011;14238;49.496;8.154;2024-03-02T07:27:16;14.83;;;13.33;;
26594;SDS011;14238;49.496;8.154;2024-03-02T07:29:42;13.17;;;11.97;;
26594;SDS011;14238;49.496;8.154;2024-03-02T07:32:09;13.70;;;12.30;;
26594;SDS011;14238;49.496;8.154;2024-03-02T07:34:35;14.53;;;13.00;;
26594;SDS011;14238;49.496;8.154;2024-03-02T07:37:02;15.20;;;13.60;;
26594;SDS011;14238;49.496;8.154;2024-03-02T07:39:28;16.70;;;15.10;;
26594;SDS011;14238;49.496;8.154;2024-03-02T07:41:54;18.37;;;16.57;;
26594;SDS011;14238;49.496;8.154;2024-03-02T07:44:20;19.50;;;17.40;;
26594;SDS011;14238;49.496;8.154;2024-03-02T07:46:46;21.57;;;19.33;;
26594;SDS011;14238;49.496;8.154;2024-03-02T07:49:14;19.97;;;17.97;;
26594;SDS011;14238;49.496;8.154;2024-03-02T07:51:40;17.93;;;16.23;;
26594;SDS011;14238;49.496;8.154;2024-03-02T07:54:06;18.93;;;17.03;;
26594;SDS011;14238;49.496;8.154;2024-03-02T07:56:32;18.87;;;16.97;;
26594;SDS011;14238;49.496;8.154;2024-03-02T07:58:58;18.63;;;16.90;;
26594;SDS011;14238;49.496;8.154;2024-03-02T08:01:29;19.77;;;17.97;;
26594;SDS011;14238;49.496;8.154;2024-03-02T08:03:59;17.40;;;15.80;;
26594;SDS011;14238;49.496;8.154;2024-03-02T08:06:28;18.10;;;16.07;;
26594;SDS011;14238;49.496;8.154;2024-03-02T08:08:55;17.30;;;15.60;;
26594;SDS011;14238;49.496;8.154;2024-03-02T08:11:21;17.23;;;15.30;;
26594;SDS011;14238;49.496;8.154;2024-03-02T08:13:47;15.77;;;14.27;;
26594;SDS011;14238;49.496;8.154;2024-03-02T08:16:16;17.80;;;16.00;;
26594;SDS011;14238;49.496;8.154;2024-03-02T08:18:48;16.03;;;14.60;;
26594;SDS011;14238;49.496;8.154;2024-03-02T08:21:15;16.40;;;14.90;;
26594;SDS011;14238;49.496;8.154;2024-03-02T08:23:41;16.23;;;14.73;;
26594;SDS011;14238;49.496;8.154;2024-03-02T08:26:08;19.43;;;17.47;;
26594;SDS011;14238;49.496;8.154;2024-03-02T08:28:34;18.30;;;16.53;;
26594;SDS011;14238;49.496;8.154;2024-03-02T08:31:02;18.40;;;16.70;;
26594;SDS011;14238;49.496;8.154;2024-03-02T08:33:28;17.20;;;15.50;;
26594;SDS011;14238;49.496;8.154;2024-03-02T08:35:54;14.97;;;13.67;;
26594;SDS011;14238;49.496;8.154;2024-03-02T08:38:19;15.70;;;14.20;;
26594;SDS011;14238;49.496;8.154;2024-03-02T08:40:46;15.47;;;14.03;;
26594;SDS011;14238;49.496;8.154;2024-03-02T08:43:12;14.70;;;13.40;;
26594;SDS011;14238;49.496;8.154;2024-03-02T08:45:38;13.70;;;12.47;;
26594;SDS011;14238;49.496;8.154;2024-03-02T08:48:05;14.60;;;13.10;;
26594;SDS011;14238;49.496;8.154;2024-03-02T08:50:31;13.93;;;12.63;;
26594;SDS011;14238;49.496;8.154;2024-03-02T08:52:57;14.40;;;13.00;;
26594;SDS011;14238;49.496;8.154;2024-03-02T08:55:23;13.10;;;12.00;;
26594;SDS011;14238;49.496;8.154;2024-03-02T08:57:49;13.60;;;12.40;;
26594;SDS011;14238;49.496;8.154;2024-03-02T09:00:15;12.83;;;11.67;;
26594;SDS011;14238;49.496;8.154;2024-03-02T09:02:43;12.57;;;11.57;;
26594;SDS011;14238;49.496;8.154;2024-03-02T09:05:09;12.90;;;11.70;;
26594;SDS011;14238;49.496;8.154;2024-03-02T09:07:35;13.00;;;11.80;;
26594;SDS011;14238;49.496;8.154;2024-03-02T09:10:03;12.10;;;11.10;;
26594;SDS011;14238;49.496;8.154;2024-03-02T09:12:29;10.57;;;9.70;;
26594;SDS011;14238;49.496;8.154;2024-03-02T09:14:55;11.73;;;10.73;;
26594;SDS011;14238;49.496;8.154;2024-03-02T09:17:22;11.50;;;10.50;;
26594;SDS011;14238;49.496;8.154;2024-03-02T09:19:48;11.77;;;10.67;;
26594;SDS011;14238;49.496;8.154;2024-03-02T09:22:17;10.97;;;10.03;;
26594;SDS011;14238;49.496;8.154;2024-03-02T09:24:43;11.47;;;10.47;;
26594;SDS011;14238;49.496;8.154;2024-03-02T09:27:09;10.03;;;9.03;;
26594;SDS011;14238;49.496;8.154;2024-03-02T09:29:35;9.90;;;9.00;;
26594;SDS011;14238;49.496;8.154;2024-03-02T09:32:01;9.63;;;8.83;;
26594;SDS011;14238;49.496;8.154;2024-03-02T09:34:27;9.27;;;8.60;;
26594;SDS011;14238;49.496;8.154;2024-03-02T09:36:53;9.20;;;8.50;;
26594;SDS011;14238;49.496;8.154;2024-03-02T09:39:19;9.00;;;8.20;;
26594;SDS011;14238;49.496;8.154;2024-03-02T09:41:45;9.27;;;8.40;;
26594;SDS011;14238;49.496;8.154;2024-03-02T09:44:11;9.47;;;8.77;;
26594;SDS011;14238;49.496;8.154;2024-03-02T09:46:37;8.60;;;7.57;;
26594;SDS011;14238;49.496;8.154;2024-03-02T09:49:03;8.13;;;7.43;;
26594;SDS011;14238;49.496;8.154;2024-03-02T09:51:30;8.70;;;8.00;;
26594;SDS011;14238;49.496;8.154;2024-03-02T09:53:56;8.40;;;7.77;;
26594;SDS011;14238;49.496;8.154;2024-03-02T09:56:22;8.90;;;8.20;;
26594;SDS011;14238;49.496;8.154;2024-03-02T09:58:48;8.10;;;7.50;;
26594;SDS011;14238;49.496;8.154;2024-03-02T10:01:15;8.50;;;7.90;;
26594;SDS011;14238;49.496;8.154;2024-03-02T10:03:40;9.33;;;8.53;;
26594;SDS011;14238;49.496;8.154;2024-03-02T10:06:24;10.13;;;9.33;;
26594;SDS011;14238;49.496;8.154;2024-03-02T10:08:50;9.53;;;8.80;;
26594;SDS011;14238;49.496;8.154;2024-03-02T10:11:29;10.00;;;9.20;;
26594;SDS011;14238;49.496;8.154;2024-03-02T10:14:05;9.77;;;8.97;;
26594;SDS011;14238;49.496;8.154;2024-03-02T10:16:38;10.33;;;9.43;;
26594;SDS011;14238;49.496;8.154;2024-03-02T10:19:14;8.63;;;7.90;;
26594;SDS011;14238;49.496;8.154;2024-03-02T10:21:41;10.70;;;9.70;;
26594;SDS011;14238;49.496;8.154;2024-03-02T10:24:07;9.33;;;8.53;;
26594;SDS011;14238;49.496;8.154;2024-03-02T10:26:33;9.20;;;8.50;;
26594;SDS011;14238;49.496;8.154;2024-03-02T10:28:59;9.40;;;8.60;;
26594;SDS011;14238;49.496;8.154;2024-03-02T10:31:27;9.90;;;9.00;;
26594;SDS011;14238;49.496;8.154;2024-03-02T10:33:59;9.13;;;8.43;;
26594;SDS011;14238;49.496;8.154;2024-03-02T10:36:26;9.90;;;9.00;;
26594;SDS011;14238;49.496;8.154;2024-03-02T10:38:53;8.60;;;7.80;;
26594;SDS011;14238;49.496;8.154;2024-03-02T10:41:24;9.23;;;8.43;;
26594;SDS011;14238;49.496;8.154;2024-03-02T10:43:52;8.53;;;7.73;;
26594;SDS011;14238;49.496;8.154;2024-03-02T10:46:24;9.43;;;8.70;;
26594;SDS011;14238;49.496;8.154;2024-03-02T10:48:54;9.73;;;8.90;;
26594;SDS011;14238;49.496;8.154;2024-03-02T10:51:20;8.93;;;8.23;;
26594;SDS011;14238;49.496;8.154;2024-03-02T10:53:46;9.33;;;8.63;;
26594;SDS011;14238;49.496;8.154;2024-03-02T10:56:13;7.83;;;7.23;;
26594;SDS011;14238;49.496;8.154;2024-03-02T10:58:41;7.57;;;6.87;;
26594;SDS011;14238;49.496;8.154;2024-03-02T11:01:07;8.20;;;7.40;;
26594;SDS011;14238;49.496;8.154;2024-03-02T11:03:36;9.07;;;7.73;;
26594;SDS011;14238;49.496;8.154;2024-03-02T11:06:07;7.83;;;7.13;;
26594;SDS011;14238;49.496;8.154;2024-03-02T11:08:33;7.63;;;7.03;;
26594;SDS011;14238;49.496;8.154;2024-03-02T11:11:03;7.60;;;6.90;;
26594;SDS011;14238;49.496;8.154;2024-03-02T11:13:32;7.17;;;6.57;;
26594;SDS011;14238;49.496;8.154;2024-03-02T11:16:30;6.80;;;6.27;;
26594;SDS011;14238;49.496;8.154;2024-03-02T11:18:44;7.23;;;6.63;;
26594;SDS011;14238;49.496;8.154;2024-03-02T11:21:11;5.37;;;5.07;;
26594;SDS011;14238;49.496;8.154;2024-03-02T11:23:37;5.33;;;4.90;;
26594;SDS011;14238;49.496;8.154;2024-03-02T11:26:19;6.20;;;5.70;;
26594;SDS011;14238;49.496;8.154;2024-03-02T11:28:45;6.17;;;5.67;;
26594;SDS011;14238;49.496;8.154;2024-03-02T11:31:11;6.17;;;5.40;;
26594;SDS011;14238;49.496;8.154;2024-03-02T11:33:37;7.20;;;6.67;;
26594;SDS011;14238;49.496;8.154;2024-03-02T11:36:03;7.00;;;6.37;;
26594;SDS011;14238;49.496;8.154;2024-03-02T11:38:32;7.40;;;6.80;;
26594;SDS011;14238;49.496;8.154;2024-03-02T11:41:02;6.87;;;6.27;;
26594;SDS011;14238;49.496;8.154;2024-03-02T11:43:29;6.47;;;5.97;;
26594;SDS011;14238;49.496;8.154;2024-03-02T11:45:59;8.20;;;7.10;;
26594;SDS011;14238;49.496;8.154;2024-03-02T11:48:25;7.07;;;6.53;;
26594;SDS011;14238;49.496;8.154;2024-03-02T11:50:52;6.90;;;6.30;;
26594;SDS011;14238;49.496;8.154;2024-03-02T11:53:19;6.20;;;5.80;;
26594;SDS011;14238;49.496;8.154;2024-03-02T11:55:46;6.60;;;6.00;;
26594;SDS011;14238;49.496;8.154;2024-03-02T11:58:12;5.70;;;5.27;;
26594;SDS011;14238;49.496;8.154;2024-03-02T12:00:38;6.33;;;5.50;;
26594;SDS011;14238;49.496;8.154;2024-03-02T12:03:08;5.60;;;5.20;;
26594;SDS011;14238;49.496;8.154;2024-03-02T12:05:35;7.00;;;6.40;;
26594;SDS011;14238;49.496;8.154;2024-03-02T12:08:07;7.27;;;6.60;;
26594;SDS011;14238;49.496;8.154;2024-03-02T12:10:34;6.70;;;6.10;;
26594;SDS011;14238;49.496;8.154;2024-03-02T12:15:27;6.63;;;6.13;;
26594;SDS011;14238;49.496;8.154;2024-03-02T12:17:54;5.50;;;5.10;;
26594;SDS011;14238;49.496;8.154;2024-03-02T12:20:20;5.40;;;4.90;;
26594;SDS011;14238;49.496;8.154;2024-03-02T12:22:46;4.87;;;4.47;;
26594;SDS011;14238;49.496;8.154;2024-03-02T12:25:12;5.43;;;5.03;;
26594;SDS011;14238;49.496;8.154;2024-03-02T12:27:39;5.10;;;4.60;;
26594;SDS011;14238;49.496;8.154;2024-03-02T12:30:05;4.57;;;4.17;;
26594;SDS011;14238;49.496;8.154;2024-03-02T12:32:35;4.73;;;4.33;;
26594;SDS011;14238;49.496;8.154;2024-03-02T12:35:01;4.00;;;3.70;;
26594;SDS011;14238;49.496;8.154;2024-03-02T12:37:27;4.00;;;3.70;;
26594;SDS011;14238;49.496;8.154;2024-03-02T12:39:53;6.47;;;3.30;;
26594;SDS011;14238;49.496;8.154;2024-03-02T12:42:19;7.80;;;3.83;;
26594;SDS011;14238;49.496;8.154;2024-03-02T12:44:45;3.50;;;3.20;;
26594;SDS011;14238;49.496;8.154;2024-03-02T12:47:11;4.33;;;4.03;;
26594;SDS011;14238;49.496;8.154;2024-03-02T12:49:39;3.20;;;3.00;;
26594;SDS011;14238;49.496;8.154;2024-03-02T12:52:06;2.97;;;2.63;;
26594;SDS011;14238;49.496;8.154;2024-03-02T12:54:32;2.20;;;2.00;;
26594;SDS011;14238;49.496;8.154;2024-03-02T12:56:59;2.30;;;2.20;;
26594;SDS011;14238;49.496;8.154;2024-03-02T12:59:25;2.53;;;2.40;;
26594;SDS011;14238;49.496;8.154;2024-03-02T13:01:54;2.37;;;2.17;;
26594;SDS011;14238;49.496;8.154;2024-03-02T13:04:27;2.67;;;2.47;;
26594;SDS011;14238;49.496;8.154;2024-03-02T13:06:53;2.90;;;2.70;;
26594;SDS011;14238;49.496;8.154;2024-03-02T13:09:21;2.83;;;2.63;;
26594;SDS011;14238;49.496;8.154;2024-03-02T13:11:47;2.20;;;2.10;;
26594;SDS011;14238;49.496;8.154;2024-03-02T13:14:13;1.80;;;1.63;;
26594;SDS011;14238;49.496;8.154;2024-03-02T13:16:39;2.40;;;2.20;;
26594;SDS011;14238;49.496;8.154;2024-03-02T13:19:08;2.07;;;1.97;;
26594;SDS011;14238;49.496;8.154;2024-03-02T13:21:35;2.10;;;2.00;;
26594;SDS011;14238;49.496;8.154;2024-03-02T13:24:01;2.67;;;2.50;;
26594;SDS011;14238;49.496;8.154;2024-03-02T13:26:28;2.10;;;2.00;;
26594;SDS011;14238;49.496;8.154;2024-03-02T13:28:54;2.80;;;2.60;;
26594;SDS011;14238;49.496;8.154;2024-03-02T13:31:20;2.10;;;2.00;;
26594;SDS011;14238;49.496;8.154;2024-03-02T13:33:46;2.40;;;2.20;;
26594;SDS011;14238;49.496;8.154;2024-03-02T13:36:12;2.63;;;2.43;;
26594;SDS011;14238;49.496;8.154;2024-03-02T13:38:38;2.70;;;2.50;;
26594;SDS011;14238;49.496;8.154;2024-03-02T13:41:04;3.00;;;2.80;;
26594;SDS011;14238;49.496;8.154;2024-03-02T13:43:30;1.97;;;1.87;;
26594;SDS011;14238;49.496;8.154;2024-03-02T13:45:57;2.20;;;2.10;;
26594;SDS011;14238;49.496;8.154;2024-03-02T13:48:24;2.07;;;1.97;;
26594;SDS011;14238;49.496;8.154;2024-03-02T13:50:52;2.07;;;1.97;;
26594;SDS011;14238;49.496;8.154;2024-03-02T13:53:18;2.37;;;2.17;;
26594;SDS011;14238;49.496;8.154;2024-03-02T13:55:45;2.00;;;1.90;;
26594;SDS011;14238;49.496;8.154;2024-03-02T13:58:11;2.00;;;1.90;;
26594;SDS011;14238;49.496;8.154;2024-03-02T14:00:37;2.00;;;1.90;;
26594;SDS011;14238;49.496;8.154;2024-03-02T14:03:06;2.10;;;2.00;;
26594;SDS011;14238;49.496;8.154;2024-03-02T14:05:32;2.00;;;1.90;;
26594;SDS011;14238;49.496;8.154;2024-03-02T14:07:59;2.13;;;2.03;;
26594;SDS011;14238;49.496;8.154;2024-03-02T14:10:29;2.53;;;2.33;;
26594;SDS011;14238;49.496;8.154;2024-03-02T14:12:55;2.20;;;2.10;;
26594;SDS011;14238;49.496;8.154;2024-03-02T14:15:21;2.47;;;2.37;;
26594;SDS011;14238;49.496;8.154;2024-03-02T14:17:47;3.40;;;3.10;;
26594;SDS011;14238;49.496;8.154;2024-03-02T14:20:13;2.30;;;2.20;;
26594;SDS011;14238;49.496;8.154;2024-03-02T14:22:39;2.57;;;2.10;;
26594;SDS011;14238;49.496;8.154;2024-03-02T14:25:05;2.03;;;1.93;;
26594;SDS011;14238;49.496;8.154;2024-03-02T14:27:31;2.03;;;1.93;;
26594;SDS011;14238;49.496;8.154;2024-03-02T14:29:58;2.70;;;2.50;;
26594;SDS011;14238;49.496;8.154;2024-03-02T14:32:24;4.00;;;2.87;;
26594;SDS011;14238;49.496;8.154;2024-03-02T14:34:50;2.70;;;2.50;;
26594;SDS011;14238;49.496;8.154;2024-03-02T14:37:16;2.80;;;2.60;;
26594;SDS011;14238;49.496;8.154;2024-03-02T14:39:42;4.10;;;3.70;;
26594;SDS011;14238;49.496;8.154;2024-03-02T14:42:08;2.77;;;2.57;;
26594;SDS011;14238;49.496;8.154;2024-03-02T14:44:34;2.30;;;2.20;;